Time;durP1;ratioP1;P1;durP2;ratioP2;P2;SDS_P1;SDS_P2;PMS_P1;PMS_P2;Temp;Humidity;BMP_temperature;BMP_pressure;BME280_temperature;BME280_humidity;BME280_pressure;Samples;Min_cycle;Max_cycle;Signal;HPM_P1;HPM_P2
2023/08/08 00:00:21;;;;;;;1.85;0.90;;;14.60;99.90;;;;;;4039873;29;20691;-89
2023/08/08 00:02:22;;;;;;;5.30;1.48;;;14.60;99.90;;;;;;4039797;29;20185;-88
2023/08/08 00:04:22;;;;;;;3.63;1.02;;;14.60;99.90;;;;;;4024813;29;20231;-88
2023/08/08 00:06:23;;;;;;;4.93;1.15;;;14.70;99.90;;;;;;4024403;29;20182;-92
2023/08/08 00:08:24;;;;;;;8.65;1.40;;;14.60;99.90;;;;;;4024415;29;20258;-88
2023/08/08 00:10:25;;;;;;;3.88;1.05;;;14.60;99.90;;;;;;4024491;29;20233;-89
2023/08/08 00:12:25;;;;;;;4.35;1.35;;;14.60;99.90;;;;;;4024090;29;20234;-89
2023/08/08 00:14:26;;;;;;;5.25;1.15;;;14.60;99.90;;;;;;4024265;29;20186;-89
2023/08/08 00:16:27;;;;;;;4.13;1.00;;;14.60;99.90;;;;;;4024342;29;20186;-89
2023/08/08 00:18:28;;;;;;;2.83;1.20;;;14.70;99.90;;;;;;4024533;29;20664;-88
2023/08/08 00:20:29;;;;;;;2.33;1.23;;;14.70;99.90;;;;;;4024508;29;20341;-92
2023/08/08 00:22:30;;;;;;;3.47;1.20;;;14.60;99.90;;;;;;4024385;29;20187;-89
2023/08/08 00:24:31;;;;;;;3.42;1.25;;;14.50;99.90;;;;;;4024478;29;20234;-89
2023/08/08 00:26:32;;;;;;;4.35;1.17;;;14.50;99.90;;;;;;4024252;29;20278;-89
2023/08/08 00:28:32;;;;;;;2.53;1.10;;;14.50;99.90;;;;;;4024093;29;20239;-88
2023/08/08 00:30:33;;;;;;;3.45;1.10;;;14.50;99.90;;;;;;4024081;29;20214;-89
2023/08/08 00:32:34;;;;;;;3.40;1.33;;;14.40;99.90;;;;;;4039530;29;20217;-88
2023/08/08 00:34:35;;;;;;;4.95;1.30;;;14.50;99.90;;;;;;4024166;29;20273;-92
2023/08/08 00:36:35;;;;;;;4.15;1.23;;;14.40;99.90;;;;;;4024376;29;20178;-89
2023/08/08 00:38:36;;;;;;;3.25;1.05;;;14.40;99.90;;;;;;4023874;29;20217;-93
2023/08/08 00:40:37;;;;;;;2.63;1.00;;;14.40;99.90;;;;;;4023749;29;20403;-88
2023/08/08 00:42:38;;;;;;;3.28;1.00;;;14.40;99.90;;;;;;4023873;29;20217;-89
2023/08/08 00:44:40;;;;;;;2.30;1.25;;;14.50;99.90;;;;;;4024212;29;20676;-92
2023/08/08 00:46:41;;;;;;;3.55;1.30;;;14.50;99.90;;;;;;4023903;29;20190;-88
2023/08/08 00:48:42;;;;;;;2.17;0.90;;;14.50;99.90;;;;;;4024046;29;20182;-92
2023/08/08 00:50:44;;;;;;;5.82;1.40;;;14.30;99.90;;;;;;4039212;29;20210;-88
2023/08/08 00:52:46;;;;;;;4.43;1.20;;;14.20;99.90;;;;;;4023915;29;20218;-88
2023/08/08 00:54:47;;;;;;;2.63;1.25;;;14.20;99.90;;;;;;4039140;29;20205;-89
2023/08/08 00:56:48;;;;;;;4.80;1.02;;;14.20;99.90;;;;;;4023762;29;20186;-93
2023/08/08 00:58:50;;;;;;;5.60;1.33;;;14.20;99.90;;;;;;4023982;29;20801;-89
2023/08/08 01:00:54;;;;;;;4.88;1.38;;;14.20;99.90;;;;;;4023543;29;20290;-92
2023/08/08 01:02:55;;;;;;;3.38;1.08;;;14.20;99.90;;;;;;4023693;29;20250;-89
2023/08/08 01:04:56;;;;;;;5.32;1.40;;;14.30;99.90;;;;;;4038908;29;20593;-88
2023/08/08 01:07:09;;;;;;;2.80;0.98;;;14.10;99.90;;;;;;4023129;29;20190;-91
2023/08/08 01:09:21;;;;;;;3.42;1.50;;;14.20;99.90;;;;;;4023655;29;20217;-91
2023/08/08 01:11:23;;;;;;;1.65;1.00;;;14.00;99.90;;;;;;4038992;29;20293;-93
2023/08/08 01:13:26;;;;;;;3.30;1.52;;;14.10;99.90;;;;;;4023590;29;20610;-89
2023/08/08 01:15:32;;;;;;;2.67;1.20;;;14.20;99.90;;;;;;4038549;29;20185;-89
2023/08/08 01:17:33;;;;;;;3.38;1.42;;;14.30;99.90;;;;;;4023599;29;20740;-93
2023/08/08 01:19:35;;;;;;;4.03;1.30;;;14.30;99.90;;;;;;4023540;29;20206;-88
2023/08/08 01:21:40;;;;;;;4.00;1.60;;;14.30;99.90;;;;;;4023798;29;20185;-89
2023/08/08 01:23:43;;;;;;;3.97;1.30;;;14.30;99.90;;;;;;4023558;29;20733;-88
2023/08/08 01:25:46;;;;;;;8.30;1.50;;;14.20;99.90;;;;;;4023687;29;20182;-93
2023/08/08 01:27:47;;;;;;;3.17;1.40;;;14.20;99.90;;;;;;4038697;29;20659;-89
2023/08/08 01:29:48;;;;;;;6.65;1.67;;;14.20;99.90;;;;;;4038617;29;20228;-89
2023/08/08 01:31:48;;;;;;;4.80;1.35;;;14.20;99.90;;;;;;4022975;29;20338;-89
2023/08/08 01:33:49;;;;;;;3.05;1.40;;;14.30;99.90;;;;;;4038642;29;20529;-88
2023/08/08 01:35:58;;;;;;;4.63;1.20;;;14.30;99.90;;;;;;4023493;29;20559;-88
2023/08/08 01:38:08;;;;;;;6.43;1.40;;;14.40;99.90;;;;;;4038523;29;20268;-89
2023/08/08 01:40:12;;;;;;;6.25;1.35;;;14.30;99.90;;;;;;4023029;29;20210;-89
2023/08/08 01:42:15;;;;;;;3.03;1.48;;;14.30;99.90;;;;;;4038382;29;20272;-91
2023/08/08 01:44:17;;;;;;;3.33;1.27;;;14.10;99.90;;;;;;4038485;29;20205;-92
2023/08/08 01:46:20;;;;;;;7.00;1.55;;;14.10;99.90;;;;;;4023110;29;20740;-92
2023/08/08 01:48:20;;;;;;;5.47;1.50;;;14.20;99.90;;;;;;4038468;29;20583;-88
2023/08/08 01:50:21;;;;;;;7.32;1.48;;;14.10;99.90;;;;;;4023026;29;20202;-89
2023/08/08 01:52:22;;;;;;;6.35;1.38;;;14.00;99.90;;;;;;4022937;29;20236;-88
2023/08/08 01:54:23;;;;;;;6.35;1.65;;;14.00;99.90;;;;;;4022868;29;20178;-88
2023/08/08 01:56:25;;;;;;;5.18;1.35;;;14.10;99.90;;;;;;4023137;29;20190;-88
2023/08/08 01:58:25;;;;;;;5.47;1.40;;;14.10;99.90;;;;;;4023024;29;20251;-89
2023/08/08 02:00:27;;;;;;;5.90;1.55;;;14.00;99.90;;;;;;4022400;29;20692;-92
2023/08/08 02:02:27;;;;;;;3.72;1.30;;;14.00;99.90;;;;;;4022778;29;20265;-93
2023/08/08 02:04:29;;;;;;;2.78;1.13;;;14.10;99.90;;;;;;4022793;29;20222;-91
2023/08/08 02:06:29;;;;;;;3.22;1.17;;;14.20;99.90;;;;;;4023115;29;20334;-92
2023/08/08 02:08:30;;;;;;;7.05;1.60;;;14.10;99.90;;;;;;4038117;29;20644;-92
2023/08/08 02:10:31;;;;;;;4.53;1.45;;;14.20;99.90;;;;;;4037900;29;20225;-90
2023/08/08 02:12:32;;;;;;;6.20;1.27;;;14.20;99.90;;;;;;4022424;29;20308;-88
2023/08/08 02:14:33;;;;;;;3.65;1.50;;;14.10;99.90;;;;;;4022768;29;20194;-89
2023/08/08 02:16:34;;;;;;;4.60;1.60;;;14.10;99.90;;;;;;4022662;29;20213;-92
2023/08/08 02:18:40;;;;;;;5.07;1.70;;;14.20;99.90;;;;;;4021986;29;20182;-92
2023/08/08 02:20:41;;;;;;;5.45;1.42;;;14.20;99.90;;;;;;4022603;29;20217;-89
2023/08/08 02:22:41;;;;;;;6.82;1.40;;;14.10;99.90;;;;;;4038163;29;20173;-88
2023/08/08 02:24:43;;;;;;;4.70;1.60;;;14.10;99.90;;;;;;4038099;29;20696;-89
2023/08/08 02:26:44;;;;;;;6.47;1.48;;;14.20;99.90;;;;;;4022832;29;20190;-93
2023/08/08 02:28:45;;;;;;;4.60;1.80;;;14.20;99.90;;;;;;4022381;29;20222;-88
2023/08/08 02:30:45;;;;;;;2.42;1.30;;;14.20;99.90;;;;;;4022378;29;20193;-89
2023/08/08 02:32:46;;;;;;;6.20;1.88;;;14.20;99.90;;;;;;4037544;29;20635;-92
2023/08/08 02:34:47;;;;;;;5.38;1.50;;;14.20;99.90;;;;;;4022475;29;20200;-89
2023/08/08 02:36:48;;;;;;;6.93;1.77;;;14.20;99.90;;;;;;4022443;29;20223;-88
2023/08/08 02:38:53;;;;;;;5.10;1.60;;;14.10;99.90;;;;;;4022616;29;20273;-91
2023/08/08 02:40:53;;;;;;;4.40;1.63;;;14.00;99.90;;;;;;4022292;29;20206;-92
2023/08/08 02:42:54;;;;;;;3.60;1.42;;;14.10;99.90;;;;;;4022255;29;20636;-92
2023/08/08 02:44:55;;;;;;;6.75;1.80;;;14.00;99.90;;;;;;4022345;29;20193;-91
2023/08/08 02:46:56;;;;;;;9.60;2.08;;;14.00;99.90;;;;;;4022275;29;20564;-88
2023/08/08 02:48:57;;;;;;;7.95;1.88;;;13.80;99.90;;;;;;4037649;29;20221;-89
2023/08/08 02:50:58;;;;;;;4.25;1.58;;;13.80;99.90;;;;;;4022191;29;20228;-93
2023/08/08 02:53:01;;;;;;;7.35;1.85;;;13.70;99.90;;;;;;4022361;29;20769;-91
2023/08/08 02:55:08;;;;;;;4.43;1.50;;;13.60;99.90;;;;;;4022888;29;20185;-90
2023/08/08 02:57:11;;;;;;;5.85;1.60;;;13.50;99.90;;;;;;4022149;29;20281;-89
2023/08/08 02:59:12;;;;;;;3.65;1.70;;;13.60;99.90;;;;;;4022055;29;20605;-89
2023/08/08 03:01:15;;;;;;;5.20;1.42;;;13.60;99.90;;;;;;4022353;29;20194;-88
2023/08/08 03:03:16;;;;;;;6.70;1.98;;;13.60;99.90;;;;;;4022524;29;20186;-90
2023/08/08 03:05:18;;;;;;;7.55;2.13;;;13.60;99.90;;;;;;4037536;29;20281;-89
2023/08/08 03:07:19;;;;;;;5.13;1.67;;;13.70;99.90;;;;;;4022305;29;20694;-88
2023/08/08 03:09:20;;;;;;;6.07;1.83;;;13.80;99.90;;;;;;4021961;29;20210;-92
2023/08/08 03:11:21;;;;;;;5.70;1.50;;;13.80;99.90;;;;;;4022078;29;20269;-88
2023/08/08 03:13:23;;;;;;;5.93;2.10;;;13.90;99.90;;;;;;4022054;29;20191;-88
2023/08/08 03:15:24;;;;;;;4.40;1.85;;;13.90;99.90;;;;;;4037426;29;20181;-90
2023/08/08 03:17:25;;;;;;;7.07;1.90;;;14.00;99.90;;;;;;4022078;29;20220;-87
2023/08/08 03:19:26;;;;;;;11.52;2.53;;;13.90;99.90;;;;;;4037419;29;20201;-88
2023/08/08 03:21:27;;;;;;;8.05;2.03;;;13.90;99.90;;;;;;4022064;29;20182;-88
2023/08/08 03:23:28;;;;;;;8.27;2.20;;;13.90;99.90;;;;;;4037624;29;20177;-87
2023/08/08 03:25:29;;;;;;;6.22;1.80;;;13.80;99.90;;;;;;4022123;29;20281;-88
2023/08/08 03:27:30;;;;;;;7.28;1.67;;;13.70;99.90;;;;;;4022370;29;20636;-89
2023/08/08 03:29:31;;;;;;;5.88;1.85;;;13.70;99.90;;;;;;4023836;29;20222;-88
2023/08/08 03:31:33;;;;;;;4.65;2.00;;;13.80;99.90;;;;;;4024823;29;20174;-88
2023/08/08 03:33:37;;;;;;;5.68;1.60;;;13.80;99.90;;;;;;4025384;29;20198;-90
2023/08/08 03:35:43;;;;;;;10.82;2.42;;;13.70;99.90;;;;;;4025246;29;20636;-90
2023/08/08 03:37:44;;;;;;;6.10;2.30;;;13.60;99.90;;;;;;4025217;29;20198;-88
2023/08/08 03:39:45;;;;;;;5.18;2.13;;;13.60;99.90;;;;;;4024894;29;20210;-90
2023/08/08 03:41:46;;;;;;;5.55;1.95;;;13.50;99.90;;;;;;4024861;29;20196;-88
2023/08/08 03:43:47;;;;;;;8.07;2.08;;;13.50;99.90;;;;;;4024896;29;20179;-90
2023/08/08 03:45:48;;;;;;;3.85;1.85;;;13.40;99.90;;;;;;4040126;29;20217;-88
2023/08/08 03:47:49;;;;;;;3.53;1.65;;;13.40;99.90;;;;;;4024877;29;20214;-88
2023/08/08 03:49:50;;;;;;;5.97;2.03;;;13.40;99.90;;;;;;4040373;29;20209;-88
2023/08/08 03:51:52;;;;;;;6.20;1.95;;;13.50;99.90;;;;;;4024775;29;20221;-88
2023/08/08 03:53:52;;;;;;;4.55;2.10;;;13.50;99.90;;;;;;4040049;29;20229;-90
2023/08/08 03:55:53;;;;;;;5.78;2.33;;;13.40;99.90;;;;;;4024606;29;20758;-89
2023/08/08 03:57:55;;;;;;;4.38;2.10;;;13.40;99.90;;;;;;4024741;29;20186;-90
2023/08/08 03:59:55;;;;;;;5.88;1.95;;;13.30;99.90;;;;;;4024615;29;20282;-91
2023/08/08 04:01:56;;;;;;;8.25;2.13;;;13.30;99.90;;;;;;4040072;29;20194;-91
2023/08/08 04:03:57;;;;;;;6.72;1.80;;;13.40;99.90;;;;;;4024416;29;20186;-88
2023/08/08 04:05:58;;;;;;;6.63;2.20;;;13.40;99.90;;;;;;4039927;29;20193;-88
2023/08/08 04:07:58;;;;;;;6.25;2.47;;;13.40;99.90;;;;;;4024424;29;20625;-91
2023/08/08 04:09:59;;;;;;;9.18;2.33;;;13.40;99.90;;;;;;4024182;29;20349;-88
2023/08/08 04:12:01;;;;;;;7.35;2.35;;;13.40;99.90;;;;;;4024297;29;20271;-88
2023/08/08 04:14:03;;;;;;;7.85;2.10;;;13.40;99.90;;;;;;4024340;29;20190;-88
2023/08/08 04:16:04;;;;;;;10.05;2.45;;;13.40;99.90;;;;;;4024359;29;20190;-88
2023/08/08 04:18:06;;;;;;;7.43;2.53;;;13.40;99.90;;;;;;4040101;29;20603;-88
2023/08/08 04:20:07;;;;;;;7.00;2.00;;;13.30;99.90;;;;;;4024345;29;20221;-90
2023/08/08 04:22:08;;;;;;;6.50;2.63;;;13.30;99.90;;;;;;4039708;29;20225;-91
2023/08/08 04:24:09;;;;;;;4.60;2.15;;;13.40;99.90;;;;;;4039606;29;20264;-88
2023/08/08 04:26:09;;;;;;;5.90;2.08;;;13.40;99.90;;;;;;4024416;29;20198;-90
2023/08/08 04:28:10;;;;;;;6.55;2.47;;;13.50;99.90;;;;;;4024236;29;20182;-90
2023/08/08 04:30:11;;;;;;;6.05;2.50;;;13.40;99.90;;;;;;4024350;29;20722;-87
2023/08/08 04:32:12;;;;;;;11.82;2.58;;;13.40;99.90;;;;;;4024032;29;20210;-90
2023/08/08 04:34:12;;;;;;;6.43;2.00;;;13.40;99.90;;;;;;4024165;29;20198;-88
2023/08/08 04:36:13;;;;;;;6.22;2.20;;;13.30;99.90;;;;;;4024190;29;20223;-90
2023/08/08 04:38:15;;;;;;;7.75;2.58;;;13.30;99.90;;;;;;4039450;29;20253;-90
2023/08/08 04:40:16;;;;;;;9.23;2.45;;;13.30;99.90;;;;;;4023443;29;20691;-91
2023/08/08 04:42:17;;;;;;;6.47;3.17;;;13.30;99.90;;;;;;4039105;29;20246;-88
2023/08/08 04:44:17;;;;;;;6.93;2.55;;;13.30;99.90;;;;;;4039399;29;20181;-90
2023/08/08 04:46:18;;;;;;;6.40;2.40;;;13.20;99.90;;;;;;4039489;29;20182;-90
2023/08/08 04:48:19;;;;;;;8.57;2.70;;;13.20;99.90;;;;;;4024196;29;20194;-90
2023/08/08 04:50:20;;;;;;;5.25;2.55;;;13.20;99.90;;;;;;4023785;29;20282;-90
2023/08/08 04:52:21;;;;;;;10.63;2.42;;;13.20;99.90;;;;;;4023690;29;20230;-89
2023/08/08 04:54:22;;;;;;;11.05;2.60;;;13.30;99.90;;;;;;4039220;29;20820;-90
2023/08/08 04:56:22;;;;;;;8.65;2.50;;;13.30;99.90;;;;;;4023787;29;20183;-88
2023/08/08 04:58:23;;;;;;;9.48;2.85;;;13.40;99.90;;;;;;4039547;29;20201;-89
2023/08/08 05:00:26;;;;;;;7.25;2.20;;;13.50;99.90;;;;;;4023872;29;20707;-89
2023/08/08 05:02:27;;;;;;;8.27;2.42;;;13.50;99.90;;;;;;4039221;29;20186;-88
2023/08/08 05:04:27;;;;;;;9.50;2.40;;;13.50;99.90;;;;;;4039009;29;20186;-91
2023/08/08 05:06:28;;;;;;;5.68;2.10;;;13.50;99.90;;;;;;4023719;29;20187;-87
2023/08/08 05:08:29;;;;;;;3.78;2.15;;;13.50;99.90;;;;;;4039280;29;20182;-87
2023/08/08 05:10:31;;;;;;;5.90;2.22;;;13.70;99.90;;;;;;4023299;29;20233;-88
2023/08/08 05:12:31;;;;;;;12.18;2.65;;;13.70;99.90;;;;;;4023336;29;20230;-90
2023/08/08 05:14:32;;;;;;;5.30;2.10;;;13.80;99.90;;;;;;4038896;29;20672;-87
2023/08/08 05:16:33;;;;;;;3.00;1.83;;;13.80;99.90;;;;;;4023435;29;20280;-87
2023/08/08 05:18:33;;;;;;;10.13;2.28;;;13.80;99.90;;;;;;4023519;29;20182;-87
2023/08/08 05:20:34;;;;;;;7.75;2.53;;;13.70;99.90;;;;;;4023350;29;20687;-89
2023/08/08 05:22:35;;;;;;;6.50;2.25;;;13.60;99.90;;;;;;4023534;29;20186;-87
2023/08/08 05:24:36;;;;;;;9.18;2.28;;;13.80;99.90;;;;;;4023414;29;20189;-90
2023/08/08 05:26:37;;;;;;;8.35;2.30;;;13.80;99.90;;;;;;4038772;29;20174;-88
2023/08/08 05:28:37;;;;;;;8.20;2.28;;;13.80;99.90;;;;;;4023178;29;20190;-87
2023/08/08 05:30:38;;;;;;;8.10;2.22;;;13.80;99.90;;;;;;4023330;29;20202;-92
2023/08/08 05:32:39;;;;;;;5.00;2.03;;;13.90;99.90;;;;;;4038532;29;20568;-90
2023/08/08 05:34:40;;;;;;;9.93;2.28;;;14.00;99.90;;;;;;4023230;29;20719;-89
2023/08/08 05:36:40;;;;;;;5.85;1.70;;;14.10;99.90;;;;;;4023172;29;20194;-88
2023/08/08 05:38:41;;;;;;;5.25;2.00;;;14.20;99.90;;;;;;4023147;29;20179;-88
2023/08/08 05:40:42;;;;;;;4.65;1.98;;;14.20;99.90;;;;;;4023007;29;20266;-91
2023/08/08 05:42:43;;;;;;;4.82;2.00;;;14.20;99.90;;;;;;4023126;29;20800;-89
2023/08/08 05:44:44;;;;;;;4.68;1.70;;;14.10;99.90;;;;;;4023148;29;20266;-88
2023/08/08 05:46:44;;;;;;;4.20;1.80;;;14.00;99.90;;;;;;4022994;29;20779;-88
2023/08/08 05:48:46;;;;;;;6.35;2.38;;;14.10;99.90;;;;;;4038154;29;20178;-91
2023/08/08 05:50:47;;;;;;;4.43;1.80;;;14.10;99.90;;;;;;4022816;29;20214;-91
2023/08/08 05:52:47;;;;;;;8.60;1.73;;;14.30;99.90;;;;;;4022721;29;20221;-91
2023/08/08 05:54:48;;;;;;;5.57;1.92;;;14.40;99.90;;;;;;4038329;29;20313;-91
2023/08/08 05:56:49;;;;;;;5.53;2.00;;;14.60;99.90;;;;;;4022883;29;20227;-88
2023/08/08 05:58:50;;;;;;;4.75;1.90;;;14.90;99.90;;;;;;4022805;29;20247;-87
2023/08/08 06:00:50;;;;;;;7.63;1.65;;;14.90;99.90;;;;;;4022688;29;20708;-88
2023/08/08 06:02:51;;;;;;;4.82;1.90;;;15.00;99.90;;;;;;4038038;29;20197;-88
2023/08/08 06:04:52;;;;;;;11.07;2.10;;;15.00;99.90;;;;;;4022848;29;20266;-87
2023/08/08 06:06:53;;;;;;;7.90;1.77;;;15.20;99.90;;;;;;4022805;29;20198;-91
2023/08/08 06:08:54;;;;;;;8.98;2.17;;;15.30;99.90;;;;;;4037953;29;20196;-91
2023/08/08 06:10:55;;;;;;;8.90;2.05;;;15.40;99.90;;;;;;4022778;29;20198;-88
2023/08/08 06:12:55;;;;;;;6.25;1.92;;;15.60;99.90;;;;;;4022708;29;20229;-91
2023/08/08 06:14:56;;;;;;;5.22;1.60;;;15.80;99.90;;;;;;4038210;29;20182;-91
2023/08/08 06:16:57;;;;;;;3.90;1.52;;;16.10;99.90;;;;;;4022389;29;20653;-89
2023/08/08 06:18:58;;;;;;;5.65;1.58;;;16.00;99.90;;;;;;4022896;29;20525;-88
2023/08/08 06:20:58;;;;;;;4.25;1.52;;;16.10;99.90;;;;;;4022481;29;20246;-89
2023/08/08 06:22:59;;;;;;;4.85;1.50;;;16.40;99.90;;;;;;4022554;29;20281;-88
2023/08/08 06:25:00;;;;;;;8.73;1.70;;;16.60;99.90;;;;;;4022610;29;20277;-89
2023/08/08 06:27:00;;;;;;;5.40;1.75;;;16.50;99.90;;;;;;4037905;29;20181;-91
2023/08/08 06:29:01;;;;;;;7.40;1.42;;;16.50;99.90;;;;;;4022671;29;20202;-88
2023/08/08 06:31:02;;;;;;;5.65;1.90;;;16.60;99.90;;;;;;4022579;29;20230;-88
2023/08/08 06:33:03;;;;;;;6.95;1.80;;;16.80;99.90;;;;;;4022404;29;20226;-91
2023/08/08 06:35:04;;;;;;;5.75;1.50;;;16.40;99.90;;;;;;4022666;29;20182;-88
2023/08/08 06:37:05;;;;;;;5.55;1.48;;;16.50;99.90;;;;;;4022501;29;20246;-91
2023/08/08 06:39:06;;;;;;;7.43;1.60;;;16.50;99.90;;;;;;4037328;29;20188;-88
2023/08/08 06:41:08;;;;;;;5.35;1.33;;;16.50;99.90;;;;;;4037503;29;20215;-87
2023/08/08 06:43:08;;;;;;;6.22;1.60;;;16.80;99.90;;;;;;4022223;29;20182;-91
2023/08/08 06:45:09;;;;;;;5.75;1.70;;;16.80;99.90;;;;;;4022140;29;20225;-88
2023/08/08 06:47:11;;;;;;;4.38;1.30;;;16.50;99.90;;;;;;4022352;29;20193;-91
2023/08/08 06:49:11;;;;;;;6.85;1.38;;;16.90;99.90;;;;;;4022230;29;20537;-88
2023/08/08 06:51:12;;;;;;;5.80;1.55;;;17.00;99.90;;;;;;4022276;29;20306;-88
2023/08/08 06:53:14;;;;;;;5.30;1.70;;;17.20;99.90;;;;;;4022272;29;20222;-92
2023/08/08 06:55:15;;;;;;;6.05;1.50;;;17.20;99.90;;;;;;4021965;29;20709;-88
2023/08/08 06:57:16;;;;;;;8.70;1.63;;;17.60;99.90;;;;;;4022295;29;20186;-87
2023/08/08 06:59:17;;;;;;;4.82;1.40;;;17.50;99.90;;;;;;4037359;29;20197;-88
2023/08/08 07:01:19;;;;;;;6.88;1.75;;;17.30;99.90;;;;;;4022237;29;20190;-91
2023/08/08 07:03:19;;;;;;;7.07;1.77;;;17.10;99.90;;;;;;4021851;29;20194;-88
2023/08/08 07:05:22;;;;;;;8.82;1.45;;;17.30;99.90;;;;;;4037115;29;20177;-88
2023/08/08 07:07:23;;;;;;;8.23;1.85;;;17.20;99.90;;;;;;4022078;29;20571;-92
2023/08/08 07:09:24;;;;;;;5.40;1.23;;;17.00;99.90;;;;;;4021974;29;20209;-88
2023/08/08 07:11:25;;;;;;;7.95;1.80;;;17.30;99.90;;;;;;4021823;29;20190;-87
2023/08/08 07:13:26;;;;;;;4.55;1.38;;;17.20;99.90;;;;;;4021763;29;20228;-90
2023/08/08 07:15:27;;;;;;;6.32;2.10;;;17.60;99.90;;;;;;4021949;29;20187;-91
2023/08/08 07:17:28;;;;;;;5.63;1.48;;;17.40;99.90;;;;;;4021911;29;20205;-91
2023/08/08 07:19:29;;;;;;;5.05;1.70;;;17.30;99.90;;;;;;4021813;29;20206;-92
2023/08/08 07:21:31;;;;;;;9.23;1.83;;;17.50;99.90;;;;;;4021710;29;20201;-87
2023/08/08 07:23:31;;;;;;;4.50;1.85;;;17.60;99.90;;;;;;4037058;29;20185;-92
2023/08/08 07:25:32;;;;;;;5.93;2.00;;;17.60;99.90;;;;;;4037014;29;20280;-91
2023/08/08 07:27:33;;;;;;;4.82;1.50;;;17.60;99.90;;;;;;4021792;29;20175;-88
2023/08/08 07:29:34;;;;;;;5.38;1.45;;;17.60;99.90;;;;;;4022029;29;20218;-90
2023/08/08 07:31:34;;;;;;;5.07;1.20;;;17.80;99.90;;;;;;4021709;29;20182;-91
2023/08/08 07:33:35;;;;;;;3.75;1.33;;;18.10;99.90;;;;;;4037325;29;20604;-88
2023/08/08 07:35:36;;;;;;;5.10;1.45;;;18.40;99.90;;;;;;4022017;29;20190;-88
2023/08/08 07:37:37;;;;;;;3.75;1.30;;;18.40;99.90;;;;;;4021814;29;20561;-90
2023/08/08 07:39:37;;;;;;;6.53;1.70;;;18.40;99.90;;;;;;4022008;29;20638;-87
2023/08/08 07:41:38;;;;;;;6.15;1.63;;;18.50;99.90;;;;;;4037180;29;20258;-92
2023/08/08 07:43:39;;;;;;;6.07;2.22;;;18.60;99.90;;;;;;4021952;29;20202;-88
2023/08/08 07:45:40;;;;;;;4.53;1.45;;;18.80;99.90;;;;;;4021926;29;20220;-91
2023/08/08 07:47:41;;;;;;;7.05;1.60;;;18.70;99.90;;;;;;4037099;29;20178;-89
2023/08/08 07:49:42;;;;;;;9.93;1.35;;;18.80;99.90;;;;;;4021612;29;20266;-92
2023/08/08 07:51:43;;;;;;;3.53;1.55;;;19.10;99.90;;;;;;4037320;29;20189;-91
2023/08/08 07:53:44;;;;;;;5.18;1.45;;;19.20;99.90;;;;;;4037199;29;20193;-91
2023/08/08 07:55:44;;;;;;;8.32;2.33;;;19.20;99.90;;;;;;4021689;29;20271;-88
2023/08/08 07:57:45;;;;;;;4.15;1.13;;;19.00;99.90;;;;;;4037000;29;20382;-88
2023/08/08 07:59:46;;;;;;;6.63;1.40;;;18.90;99.90;;;;;;4021795;29;20210;-91
2023/08/08 08:01:47;;;;;;;3.78;1.10;;;19.20;99.90;;;;;;4021846;29;20198;-91
2023/08/08 08:03:47;;;;;;;4.30;1.38;;;19.50;99.90;;;;;;4021623;29;20186;-88
2023/08/08 08:05:48;;;;;;;4.80;1.13;;;19.20;99.90;;;;;;4021520;29;20560;-92
2023/08/08 08:07:49;;;;;;;7.97;1.70;;;19.20;99.90;;;;;;4021453;29;20174;-87
2023/08/08 08:09:50;;;;;;;6.78;1.40;;;19.00;99.90;;;;;;4021206;29;20217;-90
2023/08/08 08:11:50;;;;;;;5.15;1.45;;;18.90;99.90;;;;;;4021419;29;20274;-88
2023/08/08 08:13:51;;;;;;;5.15;1.38;;;19.10;99.90;;;;;;4021627;29;20300;-91
2023/08/08 08:15:52;;;;;;;6.13;1.48;;;19.10;99.90;;;;;;4021604;29;20724;-87
2023/08/08 08:17:53;;;;;;;5.60;1.20;;;19.30;99.90;;;;;;4024299;29;20193;-91
2023/08/08 08:19:54;;;;;;;4.20;1.15;;;19.50;99.90;;;;;;4024307;29;20198;-87
2023/08/08 08:21:55;;;;;;;5.95;1.35;;;19.30;99.90;;;;;;4024492;29;20190;-91
2023/08/08 08:23:55;;;;;;;5.80;1.65;;;19.40;99.90;;;;;;4024336;29;20671;-87
2023/08/08 08:25:56;;;;;;;3.90;1.05;;;20.00;99.90;;;;;;4024127;29;20311;-92
2023/08/08 08:27:57;;;;;;;4.95;1.25;;;20.10;99.90;;;;;;4039733;29;20193;-88
2023/08/08 08:29:58;;;;;;;5.30;1.00;;;20.30;99.90;;;;;;4024262;29;20222;-89
2023/08/08 08:31:58;;;;;;;5.82;1.30;;;20.50;99.90;;;;;;4024105;29;20300;-89
2023/08/08 08:33:59;;;;;;;5.97;1.60;;;20.70;99.90;;;;;;4024182;29;20226;-89
2023/08/08 08:36:00;;;;;;;6.72;1.48;;;20.70;99.90;;;;;;4024209;29;20628;-89
2023/08/08 08:38:01;;;;;;;3.50;1.23;;;20.40;99.90;;;;;;4023883;29;20190;-88
2023/08/08 08:40:04;;;;;;;5.10;1.25;;;20.00;99.90;;;;;;4024107;29;20206;-91
2023/08/08 08:42:06;;;;;;;2.40;0.95;;;20.40;99.90;;;;;;4024046;29;20187;-87
2023/08/08 08:44:08;;;;;;;6.85;1.50;;;20.60;99.90;;;;;;4023873;29;20716;-87
2023/08/08 08:46:11;;;;;;;9.57;1.27;;;20.40;99.90;;;;;;4023752;29;20197;-87
2023/08/08 08:48:14;;;;;;;6.50;1.30;;;20.50;99.90;;;;;;4039506;29;20651;-91
2023/08/08 08:50:17;;;;;;;2.55;1.08;;;20.50;99.90;;;;;;4023705;29;20302;-87
2023/08/08 08:52:18;;;;;;;6.75;1.05;;;20.40;99.90;;;;;;4039257;29;20213;-87
2023/08/08 08:54:20;;;;;;;3.30;1.08;;;20.50;99.90;;;;;;4023795;29;20194;-88
2023/08/08 08:56:22;;;;;;;4.13;1.17;;;20.40;99.90;;;;;;4023490;29;20183;-91
2023/08/08 08:58:24;;;;;;;4.68;1.20;;;20.70;99.90;;;;;;4023509;29;20194;-88
2023/08/08 09:00:25;;;;;;;4.53;1.15;;;20.70;99.90;;;;;;4023366;29;20202;-90
2023/08/08 09:02:26;;;;;;;4.32;0.90;;;21.00;99.90;;;;;;4023630;29;20557;-87
2023/08/08 09:04:29;;;;;;;5.63;1.00;;;21.50;99.90;;;;;;4023491;29;20182;-88
2023/08/08 09:06:31;;;;;;;3.75;1.05;;;20.90;99.90;;;;;;4023592;29;20762;-87
2023/08/08 09:08:31;;;;;;;2.33;0.70;;;21.00;99.90;;;;;;4023421;29;20229;-88
2023/08/08 09:10:32;;;;;;;4.30;1.15;;;20.60;99.90;;;;;;4038773;29;20217;-87
2023/08/08 09:12:34;;;;;;;5.50;1.83;;;20.40;99.90;;;;;;4023615;29;20632;-87
2023/08/08 09:14:42;;;;;;;3.05;1.17;;;21.20;99.90;;;;;;4039114;29;20686;-91
2023/08/08 09:16:43;;;;;;;3.40;1.05;;;21.20;99.90;;;;;;4022975;29;20201;-88
2023/08/08 09:18:44;;;;;;;5.43;1.08;;;21.00;99.90;;;;;;4023240;29;20185;-89
2023/08/08 09:20:49;;;;;;;5.82;1.08;;;21.40;99.90;;;;;;4023250;29;20198;-88
2023/08/08 09:22:52;;;;;;;3.33;1.00;;;21.80;99.90;;;;;;4023555;29;20398;-87
2023/08/08 09:24:53;;;;;;;3.97;1.17;;;22.00;99.90;;;;;;4038877;29;20277;-87
2023/08/08 09:26:54;;;;;;;3.83;0.95;;;22.60;99.90;;;;;;4038213;29;20285;-88
2023/08/08 09:28:54;;;;;;;5.20;1.08;;;23.00;99.90;;;;;;4023575;29;20198;-88
2023/08/08 09:30:55;;;;;;;2.22;1.00;;;23.60;99.90;;;;;;4038691;29;20205;-88
2023/08/08 09:32:59;;;;;;;3.38;0.90;;;23.20;99.90;;;;;;4023050;29;20222;-88
2023/08/08 09:35:00;;;;;;;4.45;0.80;;;22.90;99.90;;;;;;4023209;29;20193;-92
2023/08/08 09:37:02;;;;;;;2.75;0.70;;;23.00;99.90;;;;;;4023173;29;20186;-89
2023/08/08 09:39:04;;;;;;;3.42;0.90;;;23.30;99.90;;;;;;4022830;29;20186;-88
2023/08/08 09:41:05;;;;;;;4.50;0.85;;;23.50;99.90;;;;;;4038274;29;20192;-87
2023/08/08 09:43:08;;;;;;;5.50;0.85;;;23.10;99.90;;;;;;4022985;29;20190;-88
2023/08/08 09:45:09;;;;;;;4.05;0.70;;;22.80;99.90;;;;;;4038429;29;20237;-88
2023/08/08 09:47:12;;;;;;;1.73;0.57;;;22.60;99.90;;;;;;4022971;29;20198;-92
2023/08/08 09:49:14;;;;;;;2.00;0.77;;;23.00;99.90;;;;;;4038147;29;20181;-88
2023/08/08 09:51:15;;;;;;;1.40;0.63;;;22.70;99.90;;;;;;4023149;29;20190;-88
2023/08/08 09:53:17;;;;;;;2.13;0.70;;;22.60;99.90;;;;;;4038161;29;20222;-91
2023/08/08 09:55:19;;;;;;;2.85;0.93;;;22.30;99.90;;;;;;4038279;29;20190;-88
2023/08/08 09:57:22;;;;;;;2.38;0.82;;;22.30;99.90;;;;;;4022976;29;20186;-88
2023/08/08 09:59:23;;;;;;;0.95;0.70;;;22.40;99.90;;;;;;4022833;29;20207;-88
2023/08/08 10:01:25;;;;;;;1.92;0.60;;;22.40;99.90;;;;;;4022542;29;20174;-91
2023/08/08 10:03:28;;;;;;;1.30;0.60;;;22.50;99.90;;;;;;4038135;29;20292;-88
2023/08/08 10:05:29;;;;;;;2.28;0.85;;;22.10;99.90;;;;;;4038054;29;20272;-88
2023/08/08 10:07:30;;;;;;;4.80;1.20;;;22.10;99.90;;;;;;4023047;29;20194;-88
2023/08/08 10:09:31;;;;;;;2.10;0.70;;;22.10;99.90;;;;;;4038307;29;20286;-92
2023/08/08 10:11:33;;;;;;;5.35;1.20;;;21.90;99.90;;;;;;4022668;29;20342;-88
2023/08/08 10:13:36;;;;;;;4.20;0.77;;;21.40;99.90;;;;;;4037860;29;20356;-88
2023/08/08 10:15:39;;;;;;;4.35;0.70;;;21.20;99.90;;;;;;4037660;29;20197;-88
2023/08/08 10:17:41;;;;;;;2.60;0.60;;;20.80;99.90;;;;;;4022725;29;20198;-88
2023/08/08 10:19:55;;;;;;;1.30;0.60;;;20.80;99.90;;;;;;4037921;29;20240;-92
2023/08/08 10:22:14;;;;;;;1.80;0.63;;;20.70;99.90;;;;;;4022796;29;20671;-92
2023/08/08 10:24:20;;;;;;;2.55;0.80;;;20.60;99.90;;;;;;4037791;29;20195;-91
2023/08/08 10:26:21;;;;;;;4.95;0.68;;;20.30;99.90;;;;;;4022143;29;20277;-88
2023/08/08 10:28:23;;;;;;;2.15;0.60;;;20.30;99.90;;;;;;4037704;29;20273;-87
2023/08/08 10:30:23;;;;;;;2.22;0.82;;;20.40;99.90;;;;;;4022218;29;20222;-87